createdAt,value
2022-08-23T00:03:35.191Z,6.0
2022-08-23T00:08:44.076Z,8.0
2022-08-23T00:13:48.473Z,7.0
2022-08-23T00:18:53.821Z,7.0
2022-08-23T00:24:00.028Z,8.0
2022-08-23T00:29:06.235Z,7.0
2022-08-23T00:34:12.447Z,7.0
2022-08-23T00:39:18.653Z,7.0
2022-08-23T00:44:24.864Z,9.0
2022-08-23T00:49:31.065Z,8.0
2022-08-23T00:54:37.276Z,7.0
2022-08-23T00:59:43.484Z,7.0
2022-08-23T01:04:49.692Z,7.0
2022-08-23T01:09:55.904Z,9.0
2022-08-23T01:15:01.144Z,9.0
2022-08-23T01:20:07.359Z,9.0
2022-08-23T01:25:12.581Z,8.0
2022-08-23T01:30:18.791Z,8.0
2022-08-23T01:40:31.207Z,8.0
2022-08-23T01:45:37.412Z,8.0
2022-08-23T01:50:43.630Z,9.0
2022-08-23T01:55:49.831Z,8.0
2022-08-23T02:00:56.044Z,9.0
2022-08-23T02:06:02.252Z,8.5
2022-08-23T02:11:08.456Z,8.0
2022-08-23T02:16:14.917Z,9.0
2022-08-23T02:21:20.882Z,9.0
2022-08-23T02:26:31.206Z,9.0
2022-08-23T02:31:33.293Z,8.0
2022-08-23T02:36:39.494Z,8.0
2022-08-23T02:41:45.705Z,8.0
2022-08-23T02:46:51.916Z,8.0
2022-08-23T02:51:58.121Z,9.0
2022-08-23T02:57:04.329Z,9.0
2022-08-23T03:02:10.559Z,9.0
2022-08-23T03:07:16.747Z,8.0
2022-08-23T03:12:21.982Z,9.0
2022-08-23T03:17:28.199Z,9.0
2022-08-23T03:22:34.416Z,9.0
2022-08-23T03:27:44.955Z,9.0
2022-08-23T03:32:49.105Z,9.0
2022-08-23T03:37:55.235Z,9.0
2022-08-23T03:42:59.232Z,11.0
2022-08-23T03:48:05.439Z,14.0
2022-08-23T03:58:17.860Z,13.0
2022-08-23T04:03:24.065Z,13.0
2022-08-23T04:08:33.482Z,14.0
2022-08-23T04:13:36.483Z,13.0
2022-08-23T04:18:42.684Z,14.0
2022-08-23T04:23:48.901Z,14.0
2022-08-23T04:28:55.107Z,14.0
2022-08-23T04:34:01.319Z,14.0
2022-08-23T04:39:07.524Z,15.0
2022-08-23T04:44:13.762Z,14.0
2022-08-23T04:49:19.942Z,14.0
2022-08-23T04:59:32.354Z,13.5
2022-08-23T05:04:38.563Z,13.0
2022-08-23T05:09:43.805Z,14.0
2022-08-23T05:14:50.011Z,14.0
2022-08-23T05:19:55.251Z,17.0
2022-08-23T05:25:01.453Z,17.0
2022-08-23T05:30:07.660Z,17.0
2022-08-23T05:35:13.874Z,18.0
2022-08-23T05:40:19.169Z,18.0
2022-08-23T05:45:24.331Z,18.0
2022-08-23T05:50:30.545Z,18.0
2022-08-23T05:55:36.743Z,18.0
2022-08-23T06:00:43.056Z,19.0
2022-08-23T06:05:49.167Z,19.0
2022-08-23T06:10:55.378Z,20.0
2022-08-23T06:16:14.361Z,20.0
2022-08-23T06:21:07.788Z,21.0
2022-08-23T06:26:14.007Z,21.0
2022-08-23T06:31:20.240Z,21.0
2022-08-23T06:36:26.416Z,22.0
2022-08-23T06:41:32.622Z,22.0
2022-08-23T06:46:38.906Z,22.0
2022-08-23T06:51:45.043Z,21.0
2022-08-23T06:56:51.253Z,23.0
2022-08-23T07:01:57.652Z,24.0
2022-08-23T07:07:06.161Z,22.0
2022-08-23T07:12:09.878Z,20.0
2022-08-23T07:17:16.084Z,19.0
2022-08-23T07:22:22.297Z,18.0
2022-08-23T07:27:27.539Z,18.0
2022-08-23T07:32:33.736Z,15.0
2022-08-23T07:37:39.955Z,13.0
2022-08-23T07:42:45.191Z,11.0
2022-08-23T07:47:51.394Z,10.0
2022-08-23T07:52:57.607Z,9.0
2022-08-23T07:58:03.829Z,10.0
2022-08-23T08:03:10.083Z,10.0
2022-08-23T08:08:16.719Z,10.0
2022-08-23T08:13:22.443Z,11.0
2022-08-23T08:18:28.667Z,11.0
2022-08-23T08:23:34.871Z,13.0
2022-08-23T08:28:41.090Z,17.0
2022-08-23T08:33:47.300Z,19.0
2022-08-23T08:38:58.350Z,17.0
2022-08-23T08:43:59.732Z,16.0
2022-08-23T08:49:05.952Z,15.0
2022-08-23T08:54:12.168Z,15.0
2022-08-23T08:59:18.378Z,14.0
2022-08-23T09:04:24.610Z,13.0
2022-08-23T09:09:30.816Z,13.0
2022-08-23T09:14:37.044Z,13.0
2022-08-23T09:19:43.251Z,14.0
2022-08-23T09:24:49.467Z,12.5
2022-08-23T09:29:54.717Z,14.0
2022-08-23T09:35:00.938Z,15.0
2022-08-23T09:40:07.219Z,14.0
2022-08-23T09:45:12.402Z,13.0
2022-08-23T09:50:18.615Z,11.0
2022-08-23T09:55:24.853Z,12.0
2022-08-23T10:00:31.073Z,12.5
2022-08-23T10:05:37.294Z,10.0
2022-08-23T10:10:43.514Z,8.0
2022-08-23T10:15:49.837Z,9.0
2022-08-23T10:20:55.963Z,7.0
2022-08-23T10:26:02.182Z,6.5
2022-08-23T10:31:08.419Z,6.0
2022-08-23T10:36:14.609Z,3.5
2022-08-23T10:41:20.832Z,4.0
2022-08-23T10:46:27.071Z,4.0
2022-08-23T10:51:33.264Z,5.0
2022-08-23T10:56:43.003Z,5.0
2022-08-23T11:01:45.770Z,4.0
2022-08-23T11:06:51.909Z,5.0
2022-08-23T11:11:58.119Z,4.0
2022-08-23T11:17:04.342Z,6.0
2022-08-23T11:22:10.545Z,4.0
2022-08-23T11:27:16.754Z,4.0
2022-08-23T11:32:21.989Z,7.0
2022-08-23T11:37:28.203Z,5.0
2022-08-23T11:42:34.411Z,5.0
2022-08-23T11:47:40.627Z,5.0
2022-08-23T11:52:46.833Z,4.0
2022-08-23T11:57:53.047Z,4.0
2022-08-23T12:02:59.452Z,5.0
2022-08-23T12:08:05.698Z,4.0
2022-08-23T12:13:11.678Z,3.0
2022-08-23T12:18:23.895Z,4.0
2022-08-23T12:23:24.101Z,3.0
2022-08-23T12:28:30.308Z,4.0
2022-08-23T12:33:36.521Z,3.0
2022-08-23T12:38:42.730Z,4.0
2022-08-23T12:43:48.942Z,3.0
2022-08-23T12:48:55.154Z,3.0
2022-08-23T12:54:01.370Z,3.0
2022-08-23T12:59:07.605Z,3.0
2022-08-23T13:04:13.795Z,3.0
2022-08-23T13:09:19.999Z,5.0
2022-08-23T13:14:26.208Z,2.0
2022-08-23T13:19:31.445Z,3.0
2022-08-23T13:24:39.032Z,4.5
2022-08-23T13:29:43.892Z,3.0
2022-08-23T13:34:50.156Z,3.0
2022-08-23T13:39:56.372Z,4.0
2022-08-23T13:45:02.522Z,3.0
2022-08-23T13:50:11.723Z,2.0
2022-08-23T13:55:14.924Z,2.0
2022-08-23T14:00:22.692Z,3.0
2022-08-23T14:05:27.397Z,2.0
2022-08-23T14:10:33.557Z,3.0
2022-08-23T14:20:46.508Z,3.0
2022-08-23T14:25:52.193Z,3.0
2022-08-23T14:30:58.470Z,3.0
2022-08-23T14:36:04.610Z,2.0
2022-08-23T14:41:10.821Z,3.0
2022-08-23T14:46:17.072Z,3.0
2022-08-23T14:51:23.244Z,2.0
2022-08-23T14:56:29.456Z,3.0
2022-08-23T15:01:35.708Z,3.0
2022-08-23T15:06:50.273Z,2.0
2022-08-23T15:16:52.413Z,2.0
2022-08-23T15:21:58.565Z,2.0
2022-08-23T15:27:03.800Z,3.0
2022-08-23T15:32:10.536Z,4.0
2022-08-23T15:37:16.234Z,2.0
2022-08-23T15:42:21.463Z,2.0
2022-08-23T15:47:27.677Z,1.0
2022-08-23T15:52:33.885Z,2.0
2022-08-23T15:57:40.094Z,2.0
2022-08-23T16:03:17.184Z,2.0
2022-08-23T16:07:52.518Z,2.0
2022-08-23T16:12:58.766Z,2.0
2022-08-23T16:18:04.937Z,2.0
2022-08-23T16:23:11.158Z,2.0
2022-08-23T16:28:17.357Z,2.0
2022-08-23T16:33:23.573Z,3.0
2022-08-23T16:38:29.785Z,3.0
2022-08-23T16:43:35.992Z,2.0
2022-08-23T16:48:42.202Z,2.0
2022-08-23T16:54:01.861Z,2.0
2022-08-23T16:58:54.634Z,2.0
2022-08-23T17:04:00.839Z,2.0
2022-08-23T17:09:07.043Z,2.0
2022-08-23T17:14:13.253Z,2.0
2022-08-23T17:19:19.465Z,2.0
2022-08-23T17:24:25.680Z,2.0
2022-08-23T17:29:30.914Z,3.0
2022-08-23T17:34:37.127Z,2.0
2022-08-23T17:39:43.385Z,1.0
2022-08-23T17:44:48.581Z,2.0
2022-08-23T17:49:54.786Z,2.0
2022-08-23T18:00:07.209Z,1.0
2022-08-23T18:05:13.418Z,1.0
2022-08-23T18:10:19.630Z,1.0
2022-08-23T18:15:25.838Z,2.0
2022-08-23T18:20:32.051Z,2.0
2022-08-23T18:25:38.261Z,3.0
2022-08-23T18:30:44.469Z,2.0
2022-08-23T18:35:50.684Z,2.0
2022-08-23T18:40:56.904Z,3.0
2022-08-23T18:46:03.168Z,2.0
2022-08-23T18:51:14.050Z,2.0
2022-08-23T18:56:15.556Z,2.0
2022-08-23T19:01:21.958Z,2.0
2022-08-23T19:06:27.989Z,2.0
2022-08-23T19:11:34.212Z,2.0
2022-08-23T19:16:43.473Z,2.0
2022-08-23T19:21:46.642Z,2.0
2022-08-23T19:26:52.856Z,4.0
2022-08-23T19:31:59.144Z,2.0
2022-08-23T19:37:04.314Z,3.0
2022-08-23T19:42:11.781Z,3.0
2022-08-23T19:47:19.815Z,4.0
2022-08-23T19:52:22.962Z,3.0
2022-08-23T19:57:28.198Z,2.0
2022-08-23T20:02:34.407Z,3.0
2022-08-23T20:07:40.621Z,3.0
2022-08-23T20:12:46.830Z,4.0
2022-08-23T20:17:53.035Z,3.0
2022-08-23T20:22:59.348Z,4.0
2022-08-23T20:28:05.452Z,5.0
2022-08-23T20:33:11.660Z,4.0
2022-08-23T20:38:32.917Z,4.0
2022-08-23T20:43:24.086Z,5.0
2022-08-23T20:48:30.289Z,6.0
2022-08-23T20:53:36.502Z,8.0
2022-08-23T20:58:42.710Z,7.5
2022-08-23T21:03:48.916Z,8.5
2022-08-23T21:08:55.130Z,9.0
2022-08-23T21:14:01.336Z,9.0
2022-08-23T21:19:07.549Z,10.0
2022-08-23T21:24:13.772Z,9.0
2022-08-23T21:29:19.972Z,10.0
2022-08-23T21:34:26.179Z,10.0
2022-08-23T21:39:32.392Z,9.0
2022-08-23T21:44:37.618Z,9.0
2022-08-23T21:49:43.835Z,9.0
2022-08-23T21:54:49.065Z,10.0
2022-08-23T21:59:55.279Z,10.0
2022-08-23T22:05:01.487Z,10.0
2022-08-23T22:10:07.694Z,11.0
2022-08-23T22:15:13.907Z,11.0
2022-08-23T22:20:20.115Z,12.0
2022-08-23T22:25:26.319Z,11.0
2022-08-23T22:30:32.525Z,11.0
2022-08-23T22:35:38.741Z,12.0
2022-08-23T22:40:44.956Z,12.0
2022-08-23T22:45:51.210Z,13.0
2022-08-23T22:50:56.382Z,12.0
2022-08-23T22:56:02.606Z,13.0
2022-08-23T23:01:13.480Z,13.0
2022-08-23T23:06:15.009Z,12.0
2022-08-23T23:11:21.218Z,14.0
2022-08-23T23:16:27.471Z,14.0
2022-08-23T23:21:33.642Z,16.0
2022-08-23T23:26:39.847Z,14.0
2022-08-23T23:31:46.061Z,15.0
2022-08-23T23:36:52.267Z,16.0
2022-08-23T23:41:57.497Z,15.0
2022-08-23T23:47:03.710Z,13.0
2022-08-23T23:52:09.914Z,16.0
2022-08-23T23:57:16.127Z,16.0
